Time;durP1;ratioP1;P1;durP2;ratioP2;P2;SDS_P1;SDS_P2;PMS_P1;PMS_P2;Temp;Humidity;BMP_temperature;BMP_pressure;BME280_temperature;BME280_humidity;BME280_pressure;Samples;Min_cycle;Max_cycle;Signal;HPM_P1;HPM_P2
2022/03/05 00:00:48;;;;;;;16.88;9.10;;;;;;;;;;5101482;28;20042;-79
2022/03/05 00:03:14;;;;;;;16.85;8.90;;;;;;;;;;5097016;28;20153;-79
2022/03/05 00:05:41;;;;;;;12.70;8.55;;;;;;;;;;5086165;28;20047;-81
2022/03/05 00:08:07;;;;;;;13.95;8.82;;;;;;;;;;5069241;28;20710;-79
2022/03/05 00:10:34;;;;;;;16.45;9.30;;;;;;;;;;5101021;27;20085;-80
2022/03/05 00:13:00;;;;;;;14.77;9.00;;;;;;;;;;5086948;28;20050;-76
2022/03/05 00:15:26;;;;;;;15.38;9.45;;;;;;;;;;5081401;28;20044;-80
2022/03/05 00:17:53;;;;;;;14.10;9.30;;;;;;;;;;5082211;28;20063;-80
2022/03/05 00:20:19;;;;;;;15.10;9.55;;;;;;;;;;5084219;28;20042;-80
2022/03/05 00:22:52;;;;;;;16.92;9.55;;;;;;;;;;5096811;28;20040;-79
2022/03/05 00:25:18;;;;;;;14.43;9.50;;;;;;;;;;5099947;28;20800;-78
2022/03/05 00:27:44;;;;;;;14.80;9.05;;;;;;;;;;5064276;28;20040;-78
2022/03/05 00:30:11;;;;;;;16.13;9.60;;;;;;;;;;5081538;28;20070;-77
2022/03/05 00:32:37;;;;;;;15.05;10.05;;;;;;;;;;5100269;28;20055;-77
2022/03/05 00:35:04;;;;;;;15.00;9.43;;;;;;;;;;5082047;28;20527;-79
2022/03/05 00:37:30;;;;;;;17.45;9.50;;;;;;;;;;5098158;28;20036;-78
2022/03/05 00:39:56;;;;;;;16.23;9.20;;;;;;;;;;5085532;28;20540;-73
2022/03/05 00:42:22;;;;;;;17.30;9.68;;;;;;;;;;5098361;28;20513;-74
2022/03/05 00:44:48;;;;;;;13.57;8.30;;;;;;;;;;5109873;27;20048;-74
2022/03/05 00:47:14;;;;;;;14.55;9.02;;;;;;;;;;5092714;28;20039;-74
2022/03/05 00:49:40;;;;;;;19.27;10.13;;;;;;;;;;5088929;28;20062;-74
2022/03/05 00:52:06;;;;;;;16.55;8.52;;;;;;;;;;5093110;28;20051;-75
2022/03/05 00:54:32;;;;;;;15.90;9.15;;;;;;;;;;5110936;27;20122;-75
2022/03/05 00:56:58;;;;;;;13.93;8.90;;;;;;;;;;5094538;28;21756;-76
2022/03/05 00:59:24;;;;;;;13.18;8.55;;;;;;;;;;5088891;28;20074;-75
2022/03/05 01:01:51;;;;;;;13.55;8.57;;;;;;;;;;5094824;28;20064;-75
2022/03/05 01:04:17;;;;;;;14.07;9.20;;;;;;;;;;5079642;28;20051;-76
2022/03/05 01:06:43;;;;;;;14.82;8.98;;;;;;;;;;5103895;28;20044;-75
2022/03/05 01:09:09;;;;;;;14.25;8.73;;;;;;;;;;5102237;28;20124;-74
2022/03/05 01:11:35;;;;;;;15.80;8.98;;;;;;;;;;5101041;28;20112;-75
2022/03/05 01:14:01;;;;;;;14.27;9.05;;;;;;;;;;5119915;27;20058;-75
2022/03/05 01:16:27;;;;;;;15.38;8.75;;;;;;;;;;5102448;28;20127;-74
2022/03/05 01:18:53;;;;;;;19.33;7.85;;;;;;;;;;5107238;28;20085;-75
2022/03/05 01:21:19;;;;;;;15.40;8.48;;;;;;;;;;5103256;28;20058;-76
2022/03/05 01:23:45;;;;;;;14.52;8.70;;;;;;;;;;5099884;28;20094;-74
2022/03/05 01:26:11;;;;;;;13.48;8.68;;;;;;;;;;5088586;28;20497;-74
2022/03/05 01:28:37;;;;;;;13.95;8.40;;;;;;;;;;5095180;28;20482;-76
2022/03/05 01:31:04;;;;;;;13.52;8.55;;;;;;;;;;5114491;27;20108;-75
2022/03/05 01:33:30;;;;;;;14.75;8.65;;;;;;;;;;5098452;28;20055;-75
2022/03/05 01:35:56;;;;;;;15.02;8.70;;;;;;;;;;5105320;28;20124;-75
2022/03/05 01:38:22;;;;;;;14.57;8.23;;;;;;;;;;5100454;28;20040;-75
2022/03/05 01:40:48;;;;;;;14.73;8.35;;;;;;;;;;5109937;28;20039;-74
2022/03/05 01:43:14;;;;;;;13.88;8.02;;;;;;;;;;5088048;28;20180;-75
2022/03/05 01:45:41;;;;;;;12.77;8.00;;;;;;;;;;5110620;28;20219;-74
2022/03/05 01:48:07;;;;;;;13.68;8.50;;;;;;;;;;5104407;28;20105;-74
2022/03/05 01:50:33;;;;;;;14.32;8.13;;;;;;;;;;5086795;28;20067;-75
2022/03/05 01:53:00;;;;;;;15.43;9.00;;;;;;;;;;5106482;28;20122;-74
2022/03/05 01:55:26;;;;;;;14.57;9.00;;;;;;;;;;5088335;28;20051;-75
2022/03/05 01:57:52;;;;;;;14.02;8.10;;;;;;;;;;5097780;28;20063;-75
2022/03/05 02:00:18;;;;;;;15.57;8.73;;;;;;;;;;5103095;28;20040;-75
2022/03/05 02:02:45;;;;;;;14.95;8.88;;;;;;;;;;5098885;28;20047;-75
2022/03/05 02:05:11;;;;;;;18.23;9.30;;;;;;;;;;5103600;28;20036;-74
2022/03/05 02:07:38;;;;;;;16.95;9.20;;;;;;;;;;5107816;28;20500;-75
2022/03/05 02:10:05;;;;;;;15.95;9.60;;;;;;;;;;5103477;28;20119;-75
2022/03/05 02:12:32;;;;;;;17.77;9.25;;;;;;;;;;5106001;28;20055;-74
2022/03/05 02:14:59;;;;;;;14.10;9.23;;;;;;;;;;5102612;28;20047;-74
2022/03/05 02:17:28;;;;;;;15.55;9.10;;;;;;;;;;5099300;28;20082;-74
2022/03/05 02:19:55;;;;;;;17.95;9.23;;;;;;;;;;5081512;28;20055;-75
2022/03/05 02:22:21;;;;;;;22.27;8.75;;;;;;;;;;5109683;28;20131;-75
2022/03/05 02:24:48;;;;;;;26.90;9.35;;;;;;;;;;5109161;28;20367;-74
2022/03/05 02:27:14;;;;;;;15.55;9.60;;;;;;;;;;5103282;28;20043;-74
2022/03/05 02:29:40;;;;;;;16.48;9.32;;;;;;;;;;5090325;28;20044;-74
2022/03/05 02:32:07;;;;;;;14.40;8.73;;;;;;;;;;5105866;28;20059;-74
2022/03/05 02:34:33;;;;;;;16.38;8.85;;;;;;;;;;5103431;28;20958;-74
2022/03/05 02:36:59;;;;;;;14.30;8.88;;;;;;;;;;5107559;28;20131;-75
2022/03/05 02:39:25;;;;;;;18.63;9.65;;;;;;;;;;5104762;28;20044;-75
2022/03/05 02:41:55;;;;;;;15.15;9.27;;;;;;;;;;5107075;28;20051;-74
2022/03/05 02:44:21;;;;;;;20.02;10.00;;;;;;;;;;5105386;28;20067;-74
2022/03/05 02:46:47;;;;;;;18.63;9.45;;;;;;;;;;5105416;28;20040;-75
2022/03/05 02:49:13;;;;;;;17.45;9.63;;;;;;;;;;5108983;28;20043;-74
2022/03/05 02:51:39;;;;;;;16.10;9.23;;;;;;;;;;5104405;28;20052;-74
2022/03/05 02:54:06;;;;;;;15.07;9.45;;;;;;;;;;5098479;28;20044;-74
2022/03/05 02:56:32;;;;;;;16.77;9.57;;;;;;;;;;5104591;28;20043;-74
2022/03/05 02:58:58;;;;;;;16.38;9.40;;;;;;;;;;5107333;28;20067;-75
2022/03/05 03:01:24;;;;;;;15.45;8.82;;;;;;;;;;5104597;28;20039;-74
2022/03/05 03:03:50;;;;;;;16.10;9.93;;;;;;;;;;5087744;28;20044;-74
2022/03/05 03:06:16;;;;;;;14.13;9.57;;;;;;;;;;5108848;27;20134;-74
2022/03/05 03:08:43;;;;;;;15.98;9.15;;;;;;;;;;5097958;28;20031;-75
2022/03/05 03:11:11;;;;;;;15.43;9.93;;;;;;;;;;5108003;28;20047;-74
2022/03/05 03:13:37;;;;;;;18.88;9.15;;;;;;;;;;5106071;28;20035;-75
2022/03/05 03:16:04;;;;;;;15.02;8.90;;;;;;;;;;5108093;28;20109;-75
2022/03/05 03:18:30;;;;;;;16.17;9.25;;;;;;;;;;5104978;28;20088;-74
2022/03/05 03:20:56;;;;;;;16.48;9.95;;;;;;;;;;5104664;28;20509;-75
2022/03/05 03:23:22;;;;;;;17.92;9.68;;;;;;;;;;5071485;28;20051;-74
2022/03/05 03:25:48;;;;;;;17.27;9.90;;;;;;;;;;5109630;28;20036;-74
2022/03/05 03:28:14;;;;;;;16.05;10.35;;;;;;;;;;5087741;28;20403;-75
2022/03/05 03:30:40;;;;;;;18.10;9.68;;;;;;;;;;5103085;27;20080;-75
2022/03/05 03:33:07;;;;;;;14.00;8.75;;;;;;;;;;5107789;27;20474;-74
2022/03/05 03:35:33;;;;;;;14.45;8.68;;;;;;;;;;5100147;28;20059;-75
2022/03/05 03:37:59;;;;;;;14.43;9.13;;;;;;;;;;5110476;28;20036;-76
2022/03/05 03:40:25;;;;;;;14.15;8.85;;;;;;;;;;5102011;28;20043;-75
2022/03/05 03:42:51;;;;;;;17.08;9.50;;;;;;;;;;5102498;28;20051;-75
2022/03/05 03:45:18;;;;;;;16.88;9.25;;;;;;;;;;5109512;28;20097;-73
2022/03/05 03:47:46;;;;;;;16.52;9.48;;;;;;;;;;5096360;28;20495;-75
2022/03/05 03:50:13;;;;;;;15.68;9.60;;;;;;;;;;5094236;28;20150;-74
2022/03/05 03:52:39;;;;;;;17.38;9.75;;;;;;;;;;5085693;28;20055;-75
2022/03/05 03:55:07;;;;;;;16.58;8.73;;;;;;;;;;5088737;28;20075;-75
2022/03/05 03:57:33;;;;;;;14.68;8.82;;;;;;;;;;5103629;28;20055;-74
2022/03/05 03:59:59;;;;;;;21.65;9.38;;;;;;;;;;5103832;28;20043;-76
2022/03/05 04:02:25;;;;;;;14.80;9.15;;;;;;;;;;5102963;28;20380;-75
2022/03/05 04:04:51;;;;;;;16.00;9.27;;;;;;;;;;5092019;28;20043;-75
2022/03/05 04:10:03;;;;;;;17.00;8.48;;;;;;;;;;5090838;28;20048;-74
2022/03/05 04:12:30;;;;;;;14.20;8.73;;;;;;;;;;5100323;28;20039;-74
2022/03/05 04:14:56;;;;;;;14.88;8.65;;;;;;;;;;5101877;28;20035;-74
2022/03/05 04:17:22;;;;;;;14.60;8.75;;;;;;;;;;5105137;28;20421;-74
2022/03/05 04:19:48;;;;;;;15.25;8.35;;;;;;;;;;5098668;28;20036;-74
2022/03/05 04:22:14;;;;;;;15.23;8.43;;;;;;;;;;5103748;28;20047;-75
2022/03/05 04:24:40;;;;;;;15.02;8.63;;;;;;;;;;5100837;28;20040;-74
2022/03/05 04:27:06;;;;;;;16.13;8.48;;;;;;;;;;5099187;28;20044;-75
2022/03/05 04:29:33;;;;;;;13.85;8.52;;;;;;;;;;5103317;28;20414;-73
2022/03/05 04:31:59;;;;;;;16.30;8.02;;;;;;;;;;5105265;28;20478;-74
2022/03/05 04:34:25;;;;;;;14.25;8.70;;;;;;;;;;5100824;28;20035;-75
2022/03/05 04:36:52;;;;;;;14.95;9.13;;;;;;;;;;5087839;28;20446;-74
2022/03/05 04:39:18;;;;;;;15.18;8.35;;;;;;;;;;5094992;28;20079;-75
2022/03/05 04:41:44;;;;;;;17.63;8.73;;;;;;;;;;5096574;28;20470;-74
2022/03/05 04:44:10;;;;;;;14.43;8.50;;;;;;;;;;5111272;27;20086;-74
2022/03/05 04:46:36;;;;;;;15.30;8.88;;;;;;;;;;5103285;28;20043;-76
2022/03/05 04:49:03;;;;;;;15.95;7.72;;;;;;;;;;5095125;28;20051;-74
2022/03/05 04:51:29;;;;;;;14.60;8.35;;;;;;;;;;5106007;28;20466;-74
2022/03/05 04:53:55;;;;;;;14.07;8.27;;;;;;;;;;5102889;28;20059;-74
2022/03/05 04:56:21;;;;;;;16.38;9.52;;;;;;;;;;5100626;28;20105;-74
2022/03/05 04:58:47;;;;;;;16.02;8.90;;;;;;;;;;5106480;28;20134;-75
2022/03/05 05:01:13;;;;;;;13.82;8.40;;;;;;;;;;5107651;28;20051;-74
2022/03/05 05:03:40;;;;;;;13.18;8.10;;;;;;;;;;5105430;28;20035;-74
2022/03/05 05:06:06;;;;;;;14.57;9.18;;;;;;;;;;5109622;28;20043;-75
2022/03/05 05:08:32;;;;;;;14.55;8.20;;;;;;;;;;5106029;28;20036;-74
2022/03/05 05:10:58;;;;;;;14.20;7.57;;;;;;;;;;5105342;28;20121;-74
2022/03/05 05:13:24;;;;;;;13.07;8.40;;;;;;;;;;5100657;28;20216;-74
2022/03/05 05:15:51;;;;;;;14.98;8.60;;;;;;;;;;5098614;28;20032;-74
2022/03/05 05:18:17;;;;;;;15.63;8.45;;;;;;;;;;5103682;28;20040;-74
2022/03/05 05:20:43;;;;;;;17.33;8.70;;;;;;;;;;5104165;28;20382;-75
2022/03/05 05:23:09;;;;;;;17.27;8.57;;;;;;;;;;5097324;28;20082;-74
2022/03/05 05:25:35;;;;;;;13.98;7.60;;;;;;;;;;5087670;28;20051;-74
2022/03/05 05:28:01;;;;;;;14.93;8.45;;;;;;;;;;5102224;28;20032;-75
2022/03/05 05:30:27;;;;;;;15.32;8.13;;;;;;;;;;5102653;28;21928;-73
2022/03/05 05:32:53;;;;;;;13.45;9.05;;;;;;;;;;5104179;28;20044;-74
2022/03/05 05:35:20;;;;;;;14.10;8.27;;;;;;;;;;5105766;28;20036;-74
2022/03/05 05:37:46;;;;;;;13.50;7.97;;;;;;;;;;5098908;28;20040;-74
2022/03/05 05:40:12;;;;;;;14.32;8.45;;;;;;;;;;5101259;28;20043;-74
2022/03/05 05:42:38;;;;;;;13.82;8.73;;;;;;;;;;5105522;28;20112;-74
2022/03/05 05:45:04;;;;;;;15.30;8.90;;;;;;;;;;5072399;28;20036;-74
2022/03/05 05:47:31;;;;;;;12.82;7.88;;;;;;;;;;5104298;28;20114;-74
2022/03/05 05:49:57;;;;;;;13.88;7.93;;;;;;;;;;5102839;28;20094;-74
2022/03/05 05:52:23;;;;;;;17.48;9.05;;;;;;;;;;5098790;28;20044;-74
2022/03/05 05:54:49;;;;;;;16.60;8.40;;;;;;;;;;5102576;27;20123;-75
2022/03/05 05:57:15;;;;;;;14.50;8.20;;;;;;;;;;5108798;28;20074;-75
2022/03/05 05:59:41;;;;;;;14.57;7.85;;;;;;;;;;5106042;28;20068;-74
2022/03/05 06:02:07;;;;;;;13.45;8.55;;;;;;;;;;5107136;28;20130;-74
2022/03/05 06:04:33;;;;;;;15.02;8.15;;;;;;;;;;5108439;28;20158;-73
2022/03/05 06:07:00;;;;;;;15.50;8.38;;;;;;;;;;5100193;28;20044;-74
2022/03/05 06:09:26;;;;;;;16.83;7.85;;;;;;;;;;5093739;28;20360;-75
2022/03/05 06:11:53;;;;;;;14.50;7.97;;;;;;;;;;5109236;28;20075;-74
2022/03/05 06:14:19;;;;;;;15.65;8.45;;;;;;;;;;5110874;28;20047;-74
2022/03/05 06:16:45;;;;;;;16.38;8.50;;;;;;;;;;5109719;27;20040;-74
2022/03/05 06:19:11;;;;;;;13.00;7.78;;;;;;;;;;5105140;28;20039;-75
2022/03/05 06:21:38;;;;;;;15.13;7.78;;;;;;;;;;5103736;28;20040;-76
2022/03/05 06:24:04;;;;;;;13.73;8.32;;;;;;;;;;5092155;28;20455;-79
2022/03/05 06:26:31;;;;;;;13.98;8.88;;;;;;;;;;5109028;28;20035;-79
2022/03/05 06:28:58;;;;;;;11.85;7.85;;;;;;;;;;5104372;28;20047;-78
2022/03/05 06:31:24;;;;;;;14.65;8.05;;;;;;;;;;5077962;28;20142;-76
2022/03/05 06:33:50;;;;;;;13.20;8.15;;;;;;;;;;5093468;28;20101;-76
2022/03/05 06:36:16;;;;;;;12.38;7.97;;;;;;;;;;5095452;28;20040;-75
2022/03/05 06:38:43;;;;;;;14.60;8.02;;;;;;;;;;5102021;28;20172;-75
2022/03/05 06:41:09;;;;;;;14.23;8.77;;;;;;;;;;5105814;28;20047;-74
2022/03/05 06:43:35;;;;;;;14.30;8.52;;;;;;;;;;5087584;28;20110;-74
2022/03/05 06:46:01;;;;;;;15.95;8.20;;;;;;;;;;5105169;28;20044;-75
2022/03/05 06:48:27;;;;;;;15.82;8.95;;;;;;;;;;5102588;28;20067;-77
2022/03/05 06:50:53;;;;;;;14.30;7.97;;;;;;;;;;5108979;28;20043;-75
2022/03/05 06:53:19;;;;;;;15.48;8.13;;;;;;;;;;5104946;28;20031;-75
2022/03/05 06:55:46;;;;;;;13.25;7.45;;;;;;;;;;5105490;27;20126;-74
2022/03/05 06:58:14;;;;;;;13.40;7.97;;;;;;;;;;5107638;28;20043;-74
2022/03/05 07:00:40;;;;;;;13.48;7.70;;;;;;;;;;5103059;28;20127;-79
2022/03/05 07:03:07;;;;;;;11.55;7.47;;;;;;;;;;5074919;28;20044;-75
2022/03/05 07:05:33;;;;;;;12.73;7.43;;;;;;;;;;5090525;28;20116;-76
2022/03/05 07:07:59;;;;;;;12.23;7.78;;;;;;;;;;5091270;28;20039;-76
2022/03/05 07:10:25;;;;;;;11.65;6.95;;;;;;;;;;5105835;28;20063;-74
2022/03/05 07:12:51;;;;;;;9.55;6.72;;;;;;;;;;5103754;28;20044;-75
2022/03/05 07:15:17;;;;;;;9.85;6.93;;;;;;;;;;5093255;28;20147;-84
2022/03/05 07:17:47;;;;;;;12.57;7.28;;;;;;;;;;5117610;27;20054;-75
2022/03/05 07:20:13;;;;;;;11.80;7.10;;;;;;;;;;5087742;28;20059;-76
2022/03/05 07:22:39;;;;;;;11.27;6.40;;;;;;;;;;5085879;28;20057;-76
2022/03/05 07:25:05;;;;;;;10.50;6.90;;;;;;;;;;5102379;28;20115;-77
2022/03/05 07:27:32;;;;;;;11.57;7.05;;;;;;;;;;5102329;28;20036;-75
2022/03/05 07:29:58;;;;;;;11.30;6.82;;;;;;;;;;5103215;28;20040;-75
2022/03/05 07:32:24;;;;;;;9.50;6.18;;;;;;;;;;5109987;28;20229;-75
2022/03/05 07:34:50;;;;;;;10.98;6.53;;;;;;;;;;5109104;27;20502;-76
2022/03/05 07:37:16;;;;;;;10.68;6.47;;;;;;;;;;5109731;28;20069;-76
2022/03/05 07:39:42;;;;;;;9.30;6.32;;;;;;;;;;5105937;28;20561;-76
2022/03/05 07:42:08;;;;;;;12.10;8.77;;;;;;;;;;5109065;28;20416;-76
2022/03/05 07:44:34;;;;;;;11.73;7.30;;;;;;;;;;5109395;28;20046;-75
2022/03/05 07:47:00;;;;;;;11.95;7.13;;;;;;;;;;5092983;28;20047;-76
2022/03/05 07:49:27;;;;;;;10.68;7.03;;;;;;;;;;5110099;28;20043;-76
2022/03/05 07:51:53;;;;;;;10.15;7.13;;;;;;;;;;5109451;28;20120;-75
2022/03/05 07:54:19;;;;;;;11.25;6.97;;;;;;;;;;5107411;28;20050;-76
2022/03/05 07:56:46;;;;;;;9.88;6.65;;;;;;;;;;5090379;28;20079;-76
2022/03/05 07:59:12;;;;;;;10.50;7.90;;;;;;;;;;5109869;28;20517;-76
2022/03/05 08:01:39;;;;;;;11.13;8.63;;;;;;;;;;5107688;28;20420;-76
2022/03/05 08:04:05;;;;;;;11.90;8.50;;;;;;;;;;5107816;28;20416;-76
2022/03/05 08:06:31;;;;;;;11.52;8.88;;;;;;;;;;5108622;28;20404;-75
2022/03/05 08:08:59;;;;;;;13.82;8.93;;;;;;;;;;5106882;28;20936;-75
2022/03/05 08:11:25;;;;;;;11.43;9.00;;;;;;;;;;5091075;28;20424;-75
2022/03/05 08:13:51;;;;;;;12.80;9.25;;;;;;;;;;5090412;28;20776;-76
2022/03/05 08:16:17;;;;;;;11.75;9.20;;;;;;;;;;5089400;28;20412;-75
2022/03/05 08:18:43;;;;;;;11.50;9.18;;;;;;;;;;5106446;28;20421;-75
2022/03/05 08:21:09;;;;;;;13.43;9.20;;;;;;;;;;5108101;28;20511;-76
2022/03/05 08:23:36;;;;;;;10.10;7.90;;;;;;;;;;5091753;28;20047;-75
2022/03/05 08:26:02;;;;;;;11.45;8.52;;;;;;;;;;5108125;28;20393;-75
2022/03/05 08:28:29;;;;;;;11.50;7.97;;;;;;;;;;5110105;28;20059;-75
2022/03/05 08:30:55;;;;;;;12.80;8.70;;;;;;;;;;5108542;28;20039;-75
2022/03/05 08:33:21;;;;;;;12.50;9.10;;;;;;;;;;5108971;28;20075;-76
2022/03/05 08:35:48;;;;;;;13.10;8.60;;;;;;;;;;5107700;28;20036;-75
2022/03/05 08:38:14;;;;;;;13.27;9.40;;;;;;;;;;5107830;28;20047;-75
2022/03/05 08:40:40;;;;;;;12.88;9.40;;;;;;;;;;5109983;28;20035;-75
2022/03/05 08:43:07;;;;;;;16.02;10.10;;;;;;;;;;5109102;28;20043;-75
2022/03/05 08:45:33;;;;;;;13.25;9.43;;;;;;;;;;5107220;28;20039;-76
2022/03/05 08:47:59;;;;;;;15.80;10.32;;;;;;;;;;5108198;28;20405;-75
2022/03/05 08:50:25;;;;;;;15.60;8.98;;;;;;;;;;5109534;28;20052;-75
2022/03/05 08:52:52;;;;;;;12.27;9.18;;;;;;;;;;5092816;28;20047;-75
2022/03/05 08:55:18;;;;;;;12.25;10.50;;;;;;;;;;5104292;28;20484;-75
2022/03/05 08:57:44;;;;;;;12.85;11.25;;;;;;;;;;5077754;28;20429;-76
2022/03/05 09:00:12;;;;;;;14.23;11.50;;;;;;;;;;5096496;28;20439;-75
2022/03/05 09:02:38;;;;;;;14.73;11.80;;;;;;;;;;5095918;28;20949;-75
2022/03/05 09:05:05;;;;;;;15.45;12.10;;;;;;;;;;5094445;28;20476;-75
2022/03/05 09:07:31;;;;;;;14.88;12.40;;;;;;;;;;5105056;28;20806;-76
2022/03/05 09:09:57;;;;;;;15.13;12.25;;;;;;;;;;5091159;28;20419;-76
2022/03/05 09:12:23;;;;;;;14.20;12.02;;;;;;;;;;5107909;28;20408;-75
2022/03/05 09:14:49;;;;;;;15.23;12.40;;;;;;;;;;5108906;28;20471;-74
2022/03/05 09:17:16;;;;;;;16.20;12.70;;;;;;;;;;5106105;28;20420;-75
2022/03/05 09:19:42;;;;;;;15.88;13.25;;;;;;;;;;5088680;28;20428;-74
2022/03/05 09:22:10;;;;;;;16.77;13.25;;;;;;;;;;5107954;28;20488;-74
2022/03/05 09:24:37;;;;;;;16.50;13.53;;;;;;;;;;5104660;28;20752;-75
2022/03/05 09:27:03;;;;;;;17.90;13.73;;;;;;;;;;5106811;28;20477;-75
2022/03/05 09:29:29;;;;;;;18.42;14.60;;;;;;;;;;5088185;28;20412;-75
2022/03/05 09:31:55;;;;;;;17.02;14.18;;;;;;;;;;5105539;28;20503;-75
2022/03/05 09:34:21;;;;;;;19.83;14.68;;;;;;;;;;5106494;28;20419;-75
2022/03/05 09:36:47;;;;;;;18.30;13.70;;;;;;;;;;5090470;28;20416;-75
2022/03/05 09:39:13;;;;;;;16.90;14.05;;;;;;;;;;5089426;28;20510;-75
2022/03/05 09:41:39;;;;;;;16.88;13.38;;;;;;;;;;5106775;28;20411;-76
2022/03/05 09:44:06;;;;;;;16.77;11.98;;;;;;;;;;5106280;28;20055;-76
2022/03/05 09:46:32;;;;;;;;;;;;;;;;;;5106826;28;20140;-77
2022/03/05 09:48:58;;;;;;;;;;;;;;;;;;5105340;28;19923;-74
2022/03/05 09:51:24;;;;;;;;;;;;;;;;;;5109065;28;19927;-74
2022/03/05 09:53:50;;;;;;;;;;;;;;;;;;5082901;28;19943;-76
2022/03/05 09:56:16;;;;;;;;;;;;;;;;;;5081135;28;19942;-77
2022/03/05 09:58:42;;;;;;;;;;;;;;;;;;5095891;28;19971;-76
2022/03/05 10:01:08;;;;;;;;;;;;;;;;;;5104017;28;19931;-78
2022/03/05 10:03:34;;;;;;;;;;;;;;;;;;5085136;28;19924;-75
2022/03/05 10:06:00;;;;;;;;;;;;;;;;;;5102243;28;20014;-75
2022/03/05 10:08:26;;;;;;;;;;;;;;;;;;5109204;28;20018;-75
2022/03/05 10:10:53;;;;;;;19.07;11.67;;;;;;;;;;5094931;28;20018;-75
2022/03/05 10:13:19;;;;;;;21.33;13.50;;;;;;;;;;5108437;28;20059;-78
2022/03/05 10:15:45;;;;;;;21.25;11.82;;;;;;;;;;5100008;28;20070;-80
2022/03/05 10:18:11;;;;;;;19.95;12.35;;;;;;;;;;5119032;28;20052;-75
2022/03/05 10:20:43;;;;;;;21.02;12.52;;;;;;;;;;5094637;28;20055;-76
2022/03/05 10:23:11;;;;;;;20.23;13.18;;;;;;;;;;5121459;28;20451;-76
2022/03/05 10:25:38;;;;;;;20.73;12.73;;;;;;;;;;5104481;28;21045;-75
2022/03/05 10:28:12;;;;;;;18.85;12.52;;;;;;;;;;5106245;28;20134;-75
2022/03/05 10:30:40;;;;;;;26.50;15.70;;;;;;;;;;5104987;28;21337;-76
2022/03/05 10:33:07;;;;;;;20.77;15.57;;;;;;;;;;5098251;28;20449;-76
2022/03/05 10:35:33;;;;;;;21.67;15.98;;;;;;;;;;5104074;28;20424;-76
2022/03/05 10:38:00;;;;;;;22.10;16.02;;;;;;;;;;5103423;28;20428;-76
2022/03/05 10:40:27;;;;;;;23.13;16.08;;;;;;;;;;5108985;28;20420;-76
2022/03/05 10:42:53;;;;;;;23.45;16.23;;;;;;;;;;5108509;28;20908;-78
2022/03/05 10:45:19;;;;;;;22.00;15.73;;;;;;;;;;5108342;28;20414;-76
2022/03/05 10:47:47;;;;;;;20.97;15.50;;;;;;;;;;5090411;28;20473;-75
2022/03/05 10:50:29;;;;;;;21.10;15.73;;;;;;;;;;5109241;28;20412;-75
2022/03/05 10:52:58;;;;;;;21.92;16.08;;;;;;;;;;5110493;28;20501;-76
2022/03/05 10:55:25;;;;;;;23.15;16.20;;;;;;;;;;5105402;28;20428;-76
2022/03/05 10:57:58;;;;;;;22.60;15.70;;;;;;;;;;5106865;28;20459;-75
2022/03/05 11:00:25;;;;;;;23.42;16.75;;;;;;;;;;5108362;28;20507;-75
2022/03/05 11:02:51;;;;;;;22.50;15.90;;;;;;;;;;5108402;28;21167;-76
2022/03/05 11:05:20;;;;;;;20.00;15.60;;;;;;;;;;5109631;28;20426;-76
2022/03/05 11:07:49;;;;;;;22.60;15.95;;;;;;;;;;5109427;28;20738;-77
2022/03/05 11:10:17;;;;;;;24.70;16.17;;;;;;;;;;5110815;28;20428;-76
2022/03/05 11:12:45;;;;;;;22.38;16.73;;;;;;;;;;5108860;28;20482;-76
2022/03/05 11:15:12;;;;;;;22.15;16.80;;;;;;;;;;5109848;28;20408;-76
2022/03/05 11:17:39;;;;;;;23.95;16.80;;;;;;;;;;5109869;28;20421;-75
2022/03/05 11:20:05;;;;;;;24.90;16.73;;;;;;;;;;5108544;28;20408;-76
2022/03/05 11:22:31;;;;;;;23.55;16.65;;;;;;;;;;5109456;28;20424;-75
2022/03/05 11:24:57;;;;;;;21.52;16.67;;;;;;;;;;5107529;28;20432;-76
2022/03/05 11:27:23;;;;;;;23.05;16.25;;;;;;;;;;5098096;28;20424;-75
2022/03/05 11:29:54;;;;;;;24.23;16.30;;;;;;;;;;5107191;28;20416;-75
2022/03/05 11:32:21;;;;;;;23.83;16.17;;;;;;;;;;5107183;28;20809;-75
2022/03/05 11:34:48;;;;;;;21.77;16.02;;;;;;;;;;5107564;28;20420;-75
2022/03/05 11:37:26;;;;;;;21.55;16.55;;;;;;;;;;5108219;28;20416;-75
2022/03/05 11:39:52;;;;;;;24.02;16.80;;;;;;;;;;5108394;28;20424;-75
2022/03/05 11:42:31;;;;;;;25.08;17.13;;;;;;;;;;5108163;28;20537;-76
2022/03/05 11:44:59;;;;;;;23.00;16.95;;;;;;;;;;5107488;28;20440;-75
2022/03/05 11:47:26;;;;;;;20.47;15.90;;;;;;;;;;5122611;27;20473;-76
2022/03/05 11:49:58;;;;;;;22.77;16.38;;;;;;;;;;5108013;28;20519;-75
2022/03/05 11:52:39;;;;;;;24.58;16.58;;;;;;;;;;5106134;28;20466;-75
2022/03/05 11:55:14;;;;;;;23.63;17.00;;;;;;;;;;5105314;28;20450;-75
2022/03/05 11:57:53;;;;;;;24.67;16.73;;;;;;;;;;5107182;28;20422;-75
2022/03/05 12:00:19;;;;;;;24.38;17.25;;;;;;;;;;5106726;28;20855;-75
2022/03/05 12:02:46;;;;;;;22.30;17.42;;;;;;;;;;5106986;28;20456;-74
2022/03/05 12:05:31;;;;;;;23.65;16.50;;;;;;;;;;5106561;28;20499;-75
2022/03/05 12:07:57;;;;;;;23.47;16.53;;;;;;;;;;5090977;28;20424;-75
2022/03/05 12:10:23;;;;;;;22.70;17.13;;;;;;;;;;5109219;28;20481;-76
2022/03/05 12:13:03;;;;;;;22.65;16.52;;;;;;;;;;5106966;28;20417;-74
2022/03/05 12:15:43;;;;;;;25.10;17.35;;;;;;;;;;5107366;28;20416;-75
2022/03/05 12:18:14;;;;;;;23.70;16.88;;;;;;;;;;5102988;28;20950;-75
2022/03/05 12:20:43;;;;;;;24.23;16.83;;;;;;;;;;5107524;28;20416;-75
2022/03/05 12:23:16;;;;;;;23.13;16.63;;;;;;;;;;5105923;28;20748;-74
2022/03/05 12:25:44;;;;;;;23.88;16.33;;;;;;;;;;5089876;28;20419;-75
2022/03/05 12:28:21;;;;;;;21.97;16.23;;;;;;;;;;5103919;28;21026;-75
2022/03/05 12:30:48;;;;;;;23.63;16.48;;;;;;;;;;5108318;28;20891;-74
2022/03/05 12:33:15;;;;;;;23.13;16.47;;;;;;;;;;5106415;28;20416;-76
2022/03/05 12:35:42;;;;;;;22.00;16.40;;;;;;;;;;5108428;28;20747;-74
2022/03/05 12:38:09;;;;;;;23.08;16.33;;;;;;;;;;5104766;28;20428;-74
2022/03/05 12:40:35;;;;;;;20.98;15.93;;;;;;;;;;5106539;28;20462;-75
2022/03/05 12:43:04;;;;;;;23.30;16.30;;;;;;;;;;5107796;28;20412;-75
2022/03/05 12:45:31;;;;;;;20.35;16.10;;;;;;;;;;5107645;28;20456;-75
2022/03/05 12:47:58;;;;;;;21.50;15.73;;;;;;;;;;5085662;28;20435;-75
2022/03/05 12:50:36;;;;;;;22.35;16.00;;;;;;;;;;5118296;27;20420;-75
2022/03/05 12:53:05;;;;;;;22.42;16.10;;;;;;;;;;5105637;28;20459;-75
2022/03/05 12:55:41;;;;;;;21.33;15.93;;;;;;;;;;5103121;28;20451;-75
2022/03/05 12:58:15;;;;;;;23.75;16.40;;;;;;;;;;5107083;28;20424;-75
2022/03/05 13:00:42;;;;;;;21.10;16.00;;;;;;;;;;5089092;28;20946;-75
2022/03/05 13:03:09;;;;;;;22.65;16.30;;;;;;;;;;5104637;28;20914;-75
2022/03/05 13:05:35;;;;;;;22.42;16.02;;;;;;;;;;5090002;28;20416;-75
2022/03/05 13:08:01;;;;;;;21.63;16.05;;;;;;;;;;5106170;28;20756;-76
2022/03/05 13:10:27;;;;;;;21.48;16.70;;;;;;;;;;5106769;28;20424;-75
2022/03/05 13:12:54;;;;;;;24.08;16.15;;;;;;;;;;5104530;28;20923;-74
2022/03/05 13:15:28;;;;;;;22.57;16.60;;;;;;;;;;5108364;28;20503;-75
2022/03/05 13:17:56;;;;;;;24.53;17.90;;;;;;;;;;5103174;28;20922;-74
2022/03/05 13:20:22;;;;;;;21.50;16.33;;;;;;;;;;5107455;28;20909;-75
2022/03/05 13:22:49;;;;;;;22.65;16.42;;;;;;;;;;5105058;28;20459;-75
2022/03/05 13:25:15;;;;;;;23.27;17.27;;;;;;;;;;5105262;28;20481;-74
2022/03/05 13:27:41;;;;;;;22.40;16.52;;;;;;;;;;5102498;28;20507;-76
2022/03/05 13:30:11;;;;;;;23.30;16.83;;;;;;;;;;5099324;28;20435;-75
2022/03/05 13:32:47;;;;;;;20.90;15.70;;;;;;;;;;5107122;28;20447;-75
2022/03/05 13:35:14;;;;;;;22.55;16.58;;;;;;;;;;5102909;28;20423;-75
2022/03/05 13:37:41;;;;;;;23.40;16.92;;;;;;;;;;5094026;28;20444;-75
2022/03/05 13:40:08;;;;;;;22.05;16.45;;;;;;;;;;5111678;27;20410;-76
2022/03/05 13:42:34;;;;;;;21.93;15.73;;;;;;;;;;5094482;28;20425;-75
2022/03/05 13:45:01;;;;;;;23.30;17.00;;;;;;;;;;5099267;28;20502;-75
2022/03/05 13:47:27;;;;;;;22.58;16.95;;;;;;;;;;5104676;28;20441;-76
2022/03/05 13:49:59;;;;;;;22.05;15.88;;;;;;;;;;5077381;28;20429;-75
2022/03/05 13:52:26;;;;;;;22.85;15.75;;;;;;;;;;5086443;28;20532;-75
2022/03/05 13:54:52;;;;;;;20.80;15.60;;;;;;;;;;5096802;28;20543;-75
2022/03/05 13:57:29;;;;;;;21.90;15.98;;;;;;;;;;5094969;28;20783;-75
2022/03/05 14:00:05;;;;;;;20.30;15.90;;;;;;;;;;5097665;28;20502;-75
2022/03/05 14:02:32;;;;;;;22.20;16.40;;;;;;;;;;5107227;28;20498;-75
2022/03/05 14:05:00;;;;;;;23.67;17.17;;;;;;;;;;5090820;28;20428;-75
2022/03/05 14:07:26;;;;;;;22.98;16.90;;;;;;;;;;5095793;28;20432;-75
2022/03/05 14:09:52;;;;;;;22.08;16.35;;;;;;;;;;5103169;28;20416;-75
2022/03/05 14:12:19;;;;;;;20.92;15.95;;;;;;;;;;5090985;28;20425;-75
2022/03/05 14:14:51;;;;;;;19.75;15.95;;;;;;;;;;5077406;28;20433;-75
2022/03/05 14:17:29;;;;;;;21.85;15.75;;;;;;;;;;5105389;28;20424;-75
2022/03/05 14:20:06;;;;;;;21.17;15.45;;;;;;;;;;5125411;27;20424;-75
2022/03/05 14:22:36;;;;;;;22.88;16.25;;;;;;;;;;5090604;28;20556;-74
2022/03/05 14:25:03;;;;;;;21.70;15.73;;;;;;;;;;5094279;28;21149;-74
2022/03/05 14:27:29;;;;;;;20.58;16.00;;;;;;;;;;5111735;28;20415;-75
2022/03/05 14:29:55;;;;;;;21.08;15.43;;;;;;;;;;5100542;28;20450;-76